sensor_id;sensor_type;location;lat;lon;timestamp;P1;durP1;ratioP1;P2;durP2;ratioP2
65822;SDS011;52585;47.566;19.056;2023-04-25T00:00:45;0.80;;;0.80;;
65822;SDS011;52585;47.566;19.056;2023-04-25T00:03:11;1.00;;;0.80;;
65822;SDS011;52585;47.566;19.056;2023-04-25T00:05:36;0.90;;;0.90;;
65822;SDS011;52585;47.566;19.056;2023-04-25T00:08:03;0.90;;;0.90;;
65822;SDS011;52585;47.566;19.056;2023-04-25T00:10:30;1.40;;;1.00;;
65822;SDS011;52585;47.566;19.056;2023-04-25T00:12:56;0.90;;;0.90;;
65822;SDS011;52585;47.566;19.056;2023-04-25T00:15:22;1.60;;;1.10;;
65822;SDS011;52585;47.566;19.056;2023-04-25T00:17:49;1.10;;;1.10;;
65822;SDS011;52585;47.566;19.056;2023-04-25T00:20:18;2.60;;;0.80;;
65822;SDS011;52585;47.566;19.056;2023-04-25T00:22:43;1.10;;;1.00;;
65822;SDS011;52585;47.566;19.056;2023-04-25T00:25:09;1.20;;;1.10;;
65822;SDS011;52585;47.566;19.056;2023-04-25T00:27:35;1.20;;;1.10;;
65822;SDS011;52585;47.566;19.056;2023-04-25T00:30:01;0.90;;;0.90;;
65822;SDS011;52585;47.566;19.056;2023-04-25T00:32:26;2.40;;;0.90;;
65822;SDS011;52585;47.566;19.056;2023-04-25T00:34:52;1.50;;;0.90;;
65822;SDS011;52585;47.566;19.056;2023-04-25T00:37:17;0.90;;;0.90;;
65822;SDS011;52585;47.566;19.056;2023-04-25T00:39:43;1.30;;;1.30;;
65822;SDS011;52585;47.566;19.056;2023-04-25T00:42:09;1.40;;;1.10;;
65822;SDS011;52585;47.566;19.056;2023-04-25T00:44:37;1.20;;;1.10;;
65822;SDS011;52585;47.566;19.056;2023-04-25T00:47:04;1.10;;;1.10;;
65822;SDS011;52585;47.566;19.056;2023-04-25T00:49:30;2.10;;;1.40;;
65822;SDS011;52585;47.566;19.056;2023-04-25T00:51:56;1.20;;;1.20;;
65822;SDS011;52585;47.566;19.056;2023-04-25T00:54:22;1.20;;;1.10;;
65822;SDS011;52585;47.566;19.056;2023-04-25T00:56:48;1.30;;;1.20;;
65822;SDS011;52585;47.566;19.056;2023-04-25T00:59:15;1.40;;;1.30;;
65822;SDS011;52585;47.566;19.056;2023-04-25T01:01:41;1.70;;;1.60;;
65822;SDS011;52585;47.566;19.056;2023-04-25T01:04:07;1.40;;;1.30;;
65822;SDS011;52585;47.566;19.056;2023-04-25T01:06:33;1.40;;;1.30;;
65822;SDS011;52585;47.566;19.056;2023-04-25T01:08:59;1.80;;;1.30;;
65822;SDS011;52585;47.566;19.056;2023-04-25T01:11:25;1.50;;;1.40;;
65822;SDS011;52585;47.566;19.056;2023-04-25T01:13:51;1.70;;;1.60;;
65822;SDS011;52585;47.566;19.056;2023-04-25T01:16:17;1.40;;;1.30;;
65822;SDS011;52585;47.566;19.056;2023-04-25T01:18:43;1.20;;;1.10;;
65822;SDS011;52585;47.566;19.056;2023-04-25T01:21:12;1.40;;;1.30;;
65822;SDS011;52585;47.566;19.056;2023-04-25T01:23:40;1.50;;;1.40;;
65822;SDS011;52585;47.566;19.056;2023-04-25T01:26:09;1.50;;;1.40;;
65822;SDS011;52585;47.566;19.056;2023-04-25T01:28:36;3.10;;;1.50;;
65822;SDS011;52585;47.566;19.056;2023-04-25T01:31:02;3.70;;;1.30;;
65822;SDS011;52585;47.566;19.056;2023-04-25T01:33:29;1.60;;;1.30;;
65822;SDS011;52585;47.566;19.056;2023-04-25T01:35:55;1.60;;;1.50;;
65822;SDS011;52585;47.566;19.056;2023-04-25T01:38:21;3.00;;;1.90;;
65822;SDS011;52585;47.566;19.056;2023-04-25T01:40:49;2.00;;;1.50;;
65822;SDS011;52585;47.566;19.056;2023-04-25T01:43:16;1.80;;;1.70;;
65822;SDS011;52585;47.566;19.056;2023-04-25T01:45:42;2.30;;;1.50;;
65822;SDS011;52585;47.566;19.056;2023-04-25T01:48:13;1.80;;;1.70;;
65822;SDS011;52585;47.566;19.056;2023-04-25T01:50:40;1.90;;;1.70;;
65822;SDS011;52585;47.566;19.056;2023-04-25T01:53:09;1.70;;;1.60;;
65822;SDS011;52585;47.566;19.056;2023-04-25T01:55:36;2.60;;;1.50;;
65822;SDS011;52585;47.566;19.056;2023-04-25T01:58:02;1.60;;;1.50;;
65822;SDS011;52585;47.566;19.056;2023-04-25T02:00:34;1.60;;;1.50;;
65822;SDS011;52585;47.566;19.056;2023-04-25T02:03:03;1.70;;;1.60;;
65822;SDS011;52585;47.566;19.056;2023-04-25T02:05:34;1.60;;;1.50;;
65822;SDS011;52585;47.566;19.056;2023-04-25T02:08:08;1.60;;;1.50;;
65822;SDS011;52585;47.566;19.056;2023-04-25T02:10:35;1.50;;;1.40;;
65822;SDS011;52585;47.566;19.056;2023-04-25T02:13:02;2.50;;;1.60;;
65822;SDS011;52585;47.566;19.056;2023-04-25T02:15:28;1.60;;;1.50;;
65822;SDS011;52585;47.566;19.056;2023-04-25T02:17:54;1.50;;;1.40;;
65822;SDS011;52585;47.566;19.056;2023-04-25T02:20:21;1.70;;;1.60;;
65822;SDS011;52585;47.566;19.056;2023-04-25T02:22:48;1.70;;;1.60;;
65822;SDS011;52585;47.566;19.056;2023-04-25T02:25:14;1.80;;;1.70;;
65822;SDS011;52585;47.566;19.056;2023-04-25T02:27:41;1.70;;;1.50;;
65822;SDS011;52585;47.566;19.056;2023-04-25T02:30:08;2.10;;;1.80;;
65822;SDS011;52585;47.566;19.056;2023-04-25T02:32:34;1.90;;;1.80;;
65822;SDS011;52585;47.566;19.056;2023-04-25T02:35:01;2.00;;;1.70;;
65822;SDS011;52585;47.566;19.056;2023-04-25T02:37:30;2.30;;;1.70;;
65822;SDS011;52585;47.566;19.056;2023-04-25T02:39:57;1.30;;;1.20;;
65822;SDS011;52585;47.566;19.056;2023-04-25T02:42:23;1.60;;;1.20;;
65822;SDS011;52585;47.566;19.056;2023-04-25T02:44:48;1.30;;;1.20;;
65822;SDS011;52585;47.566;19.056;2023-04-25T02:47:14;1.40;;;1.30;;
65822;SDS011;52585;47.566;19.056;2023-04-25T02:49:39;1.40;;;1.30;;
65822;SDS011;52585;47.566;19.056;2023-04-25T02:52:05;1.10;;;1.10;;
65822;SDS011;52585;47.566;19.056;2023-04-25T02:54:31;1.30;;;1.20;;
65822;SDS011;52585;47.566;19.056;2023-04-25T02:56:57;1.40;;;1.30;;
65822;SDS011;52585;47.566;19.056;2023-04-25T02:59:23;1.30;;;1.30;;
65822;SDS011;52585;47.566;19.056;2023-04-25T03:01:48;1.70;;;1.60;;
65822;SDS011;52585;47.566;19.056;2023-04-25T03:04:14;1.60;;;1.50;;
65822;SDS011;52585;47.566;19.056;2023-04-25T03:06:41;1.90;;;1.80;;
65822;SDS011;52585;47.566;19.056;2023-04-25T03:09:07;1.80;;;1.70;;
65822;SDS011;52585;47.566;19.056;2023-04-25T03:11:33;1.80;;;1.70;;
65822;SDS011;52585;47.566;19.056;2023-04-25T03:13:58;2.10;;;2.00;;
65822;SDS011;52585;47.566;19.056;2023-04-25T03:16:24;1.80;;;1.70;;
65822;SDS011;52585;47.566;19.056;2023-04-25T03:18:50;2.00;;;1.90;;
65822;SDS011;52585;47.566;19.056;2023-04-25T03:21:16;1.70;;;1.60;;
65822;SDS011;52585;47.566;19.056;2023-04-25T03:23:42;2.00;;;1.80;;
65822;SDS011;52585;47.566;19.056;2023-04-25T03:26:08;1.80;;;1.60;;
65822;SDS011;52585;47.566;19.056;2023-04-25T03:28:33;1.50;;;1.40;;
65822;SDS011;52585;47.566;19.056;2023-04-25T03:30:59;3.30;;;1.70;;
65822;SDS011;52585;47.566;19.056;2023-04-25T03:33:24;1.90;;;1.70;;
65822;SDS011;52585;47.566;19.056;2023-04-25T03:35:50;2.00;;;1.80;;
65822;SDS011;52585;47.566;19.056;2023-04-25T03:38:17;1.90;;;1.80;;
65822;SDS011;52585;47.566;19.056;2023-04-25T03:40:43;1.70;;;1.60;;
65822;SDS011;52585;47.566;19.056;2023-04-25T03:43:08;2.00;;;1.80;;
65822;SDS011;52585;47.566;19.056;2023-04-25T03:45:34;2.40;;;1.90;;
65822;SDS011;52585;47.566;19.056;2023-04-25T03:48:00;2.40;;;1.60;;
65822;SDS011;52585;47.566;19.056;2023-04-25T03:50:25;1.30;;;1.20;;
65822;SDS011;52585;47.566;19.056;2023-04-25T03:52:51;1.60;;;1.50;;
65822;SDS011;52585;47.566;19.056;2023-04-25T03:55:17;1.80;;;1.70;;
65822;SDS011;52585;47.566;19.056;2023-04-25T03:57:43;2.60;;;1.50;;
65822;SDS011;52585;47.566;19.056;2023-04-25T04:00:09;1.70;;;1.60;;
65822;SDS011;52585;47.566;19.056;2023-04-25T04:02:35;1.80;;;1.70;;
65822;SDS011;52585;47.566;19.056;2023-04-25T04:05:03;2.30;;;1.60;;
65822;SDS011;52585;47.566;19.056;2023-04-25T04:07:29;1.50;;;1.40;;
65822;SDS011;52585;47.566;19.056;2023-04-25T04:09:57;2.10;;;1.60;;
65822;SDS011;52585;47.566;19.056;2023-04-25T04:12:23;2.10;;;1.80;;
65822;SDS011;52585;47.566;19.056;2023-04-25T04:14:48;1.80;;;1.70;;
65822;SDS011;52585;47.566;19.056;2023-04-25T04:17:14;1.80;;;1.70;;
65822;SDS011;52585;47.566;19.056;2023-04-25T04:19:40;1.80;;;1.70;;
65822;SDS011;52585;47.566;19.056;2023-04-25T04:22:05;2.00;;;1.90;;
65822;SDS011;52585;47.566;19.056;2023-04-25T04:24:31;1.70;;;1.60;;
65822;SDS011;52585;47.566;19.056;2023-04-25T04:26:58;1.80;;;1.70;;
65822;SDS011;52585;47.566;19.056;2023-04-25T04:29:24;1.80;;;1.70;;
65822;SDS011;52585;47.566;19.056;2023-04-25T04:31:50;1.90;;;1.80;;
65822;SDS011;52585;47.566;19.056;2023-04-25T04:34:18;2.10;;;1.90;;
65822;SDS011;52585;47.566;19.056;2023-04-25T04:36:44;1.70;;;1.60;;
65822;SDS011;52585;47.566;19.056;2023-04-25T04:39:14;1.90;;;1.60;;
65822;SDS011;52585;47.566;19.056;2023-04-25T04:41:40;2.30;;;1.60;;
65822;SDS011;52585;47.566;19.056;2023-04-25T04:44:05;2.10;;;1.90;;
65822;SDS011;52585;47.566;19.056;2023-04-25T04:46:32;1.80;;;1.70;;
65822;SDS011;52585;47.566;19.056;2023-04-25T04:49:06;2.90;;;1.80;;
65822;SDS011;52585;47.566;19.056;2023-04-25T04:51:31;1.80;;;1.70;;
65822;SDS011;52585;47.566;19.056;2023-04-25T04:53:58;1.60;;;1.50;;
65822;SDS011;52585;47.566;19.056;2023-04-25T04:56:30;1.90;;;1.80;;
65822;SDS011;52585;47.566;19.056;2023-04-25T04:58:57;2.30;;;1.90;;
65822;SDS011;52585;47.566;19.056;2023-04-25T05:01:24;1.80;;;1.70;;
65822;SDS011;52585;47.566;19.056;2023-04-25T05:03:51;1.90;;;1.80;;
65822;SDS011;52585;47.566;19.056;2023-04-25T05:06:18;1.80;;;1.70;;
65822;SDS011;52585;47.566;19.056;2023-04-25T05:08:44;1.80;;;1.70;;
65822;SDS011;52585;47.566;19.056;2023-04-25T05:11:10;1.70;;;1.60;;
65822;SDS011;52585;47.566;19.056;2023-04-25T05:13:37;3.10;;;1.80;;
65822;SDS011;52585;47.566;19.056;2023-04-25T05:16:03;1.70;;;1.60;;
65822;SDS011;52585;47.566;19.056;2023-04-25T05:18:28;2.00;;;1.70;;
65822;SDS011;52585;47.566;19.056;2023-04-25T05:20:55;2.80;;;1.80;;
65822;SDS011;52585;47.566;19.056;2023-04-25T05:23:20;2.10;;;2.00;;
65822;SDS011;52585;47.566;19.056;2023-04-25T05:25:46;2.50;;;2.10;;
65822;SDS011;52585;47.566;19.056;2023-04-25T05:28:12;3.60;;;2.20;;
65822;SDS011;52585;47.566;19.056;2023-04-25T05:30:38;6.20;;;2.40;;
65822;SDS011;52585;47.566;19.056;2023-04-25T05:33:04;1.80;;;1.70;;
65822;SDS011;52585;47.566;19.056;2023-04-25T05:35:31;4.10;;;1.90;;
65822;SDS011;52585;47.566;19.056;2023-04-25T05:37:56;1.90;;;1.80;;
65822;SDS011;52585;47.566;19.056;2023-04-25T05:40:22;1.60;;;1.50;;
65822;SDS011;52585;47.566;19.056;2023-04-25T05:42:47;2.60;;;1.90;;
65822;SDS011;52585;47.566;19.056;2023-04-25T05:45:13;1.90;;;1.70;;
65822;SDS011;52585;47.566;19.056;2023-04-25T05:47:39;1.80;;;1.70;;
65822;SDS011;52585;47.566;19.056;2023-04-25T05:50:05;2.20;;;2.00;;
65822;SDS011;52585;47.566;19.056;2023-04-25T05:52:32;1.80;;;1.70;;
65822;SDS011;52585;47.566;19.056;2023-04-25T05:54:57;2.10;;;1.90;;
65822;SDS011;52585;47.566;19.056;2023-04-25T05:57:24;1.90;;;1.80;;
65822;SDS011;52585;47.566;19.056;2023-04-25T05:59:51;4.40;;;1.80;;
65822;SDS011;52585;47.566;19.056;2023-04-25T06:02:18;3.20;;;2.10;;
65822;SDS011;52585;47.566;19.056;2023-04-25T06:04:46;2.00;;;1.80;;
65822;SDS011;52585;47.566;19.056;2023-04-25T06:07:12;2.10;;;1.90;;
65822;SDS011;52585;47.566;19.056;2023-04-25T06:09:38;3.40;;;2.20;;
65822;SDS011;52585;47.566;19.056;2023-04-25T06:12:06;1.90;;;1.80;;
65822;SDS011;52585;47.566;19.056;2023-04-25T06:14:33;2.10;;;2.00;;
65822;SDS011;52585;47.566;19.056;2023-04-25T06:16:59;2.70;;;2.20;;
65822;SDS011;52585;47.566;19.056;2023-04-25T06:19:25;1.90;;;1.80;;
65822;SDS011;52585;47.566;19.056;2023-04-25T06:21:50;2.40;;;2.10;;
65822;SDS011;52585;47.566;19.056;2023-04-25T06:24:16;2.70;;;2.30;;
65822;SDS011;52585;47.566;19.056;2023-04-25T06:26:42;2.80;;;2.20;;
65822;SDS011;52585;47.566;19.056;2023-04-25T06:29:07;2.10;;;2.00;;
65822;SDS011;52585;47.566;19.056;2023-04-25T06:31:34;2.30;;;2.10;;
65822;SDS011;52585;47.566;19.056;2023-04-25T06:34:00;2.30;;;2.10;;
65822;SDS011;52585;47.566;19.056;2023-04-25T06:36:26;3.70;;;2.40;;
65822;SDS011;52585;47.566;19.056;2023-04-25T06:38:53;3.20;;;2.20;;
65822;SDS011;52585;47.566;19.056;2023-04-25T06:41:20;2.90;;;2.30;;
65822;SDS011;52585;47.566;19.056;2023-04-25T06:43:46;2.40;;;2.20;;
65822;SDS011;52585;47.566;19.056;2023-04-25T06:46:12;2.40;;;2.20;;
65822;SDS011;52585;47.566;19.056;2023-04-25T06:48:37;2.60;;;2.40;;
65822;SDS011;52585;47.566;19.056;2023-04-25T06:51:03;3.20;;;2.20;;
65822;SDS011;52585;47.566;19.056;2023-04-25T06:53:29;2.20;;;2.00;;
65822;SDS011;52585;47.566;19.056;2023-04-25T06:55:55;2.40;;;2.20;;
65822;SDS011;52585;47.566;19.056;2023-04-25T06:58:21;2.90;;;2.60;;
65822;SDS011;52585;47.566;19.056;2023-04-25T07:00:46;2.20;;;2.10;;
65822;SDS011;52585;47.566;19.056;2023-04-25T07:03:12;2.30;;;2.20;;
65822;SDS011;52585;47.566;19.056;2023-04-25T07:05:38;3.30;;;2.40;;
65822;SDS011;52585;47.566;19.056;2023-04-25T07:08:03;2.30;;;2.10;;
65822;SDS011;52585;47.566;19.056;2023-04-25T07:10:29;2.90;;;2.20;;
65822;SDS011;52585;47.566;19.056;2023-04-25T07:12:55;2.50;;;2.00;;
65822;SDS011;52585;47.566;19.056;2023-04-25T07:15:21;2.70;;;2.20;;
65822;SDS011;52585;47.566;19.056;2023-04-25T07:17:46;4.10;;;2.40;;
65822;SDS011;52585;47.566;19.056;2023-04-25T07:20:12;2.50;;;2.30;;
65822;SDS011;52585;47.566;19.056;2023-04-25T07:22:38;2.40;;;2.30;;
65822;SDS011;52585;47.566;19.056;2023-04-25T07:25:04;2.20;;;2.00;;
65822;SDS011;52585;47.566;19.056;2023-04-25T07:27:31;2.30;;;2.10;;
65822;SDS011;52585;47.566;19.056;2023-04-25T07:29:57;2.70;;;2.50;;
65822;SDS011;52585;47.566;19.056;2023-04-25T07:32:23;2.60;;;2.50;;
65822;SDS011;52585;47.566;19.056;2023-04-25T07:34:48;3.40;;;2.10;;
65822;SDS011;52585;47.566;19.056;2023-04-25T07:37:15;4.50;;;2.60;;
65822;SDS011;52585;47.566;19.056;2023-04-25T07:39:41;2.20;;;2.10;;
65822;SDS011;52585;47.566;19.056;2023-04-25T07:42:07;2.10;;;2.00;;
65822;SDS011;52585;47.566;19.056;2023-04-25T07:44:35;3.30;;;2.50;;
65822;SDS011;52585;47.566;19.056;2023-04-25T07:47:09;2.90;;;2.30;;
65822;SDS011;52585;47.566;19.056;2023-04-25T07:49:36;2.20;;;2.10;;
65822;SDS011;52585;47.566;19.056;2023-04-25T07:52:03;5.20;;;2.40;;
65822;SDS011;52585;47.566;19.056;2023-04-25T07:54:33;2.60;;;2.40;;
65822;SDS011;52585;47.566;19.056;2023-04-25T07:56:58;2.70;;;2.50;;
65822;SDS011;52585;47.566;19.056;2023-04-25T07:59:25;2.30;;;2.10;;
65822;SDS011;52585;47.566;19.056;2023-04-25T08:01:50;3.10;;;2.40;;
65822;SDS011;52585;47.566;19.056;2023-04-25T08:04:16;2.70;;;2.40;;
65822;SDS011;52585;47.566;19.056;2023-04-25T08:06:42;2.10;;;2.00;;
65822;SDS011;52585;47.566;19.056;2023-04-25T08:09:08;2.00;;;1.90;;
65822;SDS011;52585;47.566;19.056;2023-04-25T08:11:35;2.30;;;2.10;;
65822;SDS011;52585;47.566;19.056;2023-04-25T08:14:02;2.60;;;2.40;;
65822;SDS011;52585;47.566;19.056;2023-04-25T08:16:28;2.20;;;2.00;;
65822;SDS011;52585;47.566;19.056;2023-04-25T08:18:54;2.20;;;1.70;;
65822;SDS011;52585;47.566;19.056;2023-04-25T08:21:20;2.10;;;1.90;;
65822;SDS011;52585;47.566;19.056;2023-04-25T08:23:45;1.70;;;1.60;;
65822;SDS011;52585;47.566;19.056;2023-04-25T08:26:12;2.10;;;1.90;;
65822;SDS011;52585;47.566;19.056;2023-04-25T08:28:39;2.00;;;1.80;;
65822;SDS011;52585;47.566;19.056;2023-04-25T08:31:04;1.80;;;1.70;;
65822;SDS011;52585;47.566;19.056;2023-04-25T08:33:30;3.70;;;1.70;;
65822;SDS011;52585;47.566;19.056;2023-04-25T08:35:57;1.70;;;1.60;;
65822;SDS011;52585;47.566;19.056;2023-04-25T08:38:23;2.30;;;1.70;;
65822;SDS011;52585;47.566;19.056;2023-04-25T08:40:50;2.00;;;1.70;;
65822;SDS011;52585;47.566;19.056;2023-04-25T08:43:19;1.80;;;1.70;;
65822;SDS011;52585;47.566;19.056;2023-04-25T08:45:46;2.10;;;1.40;;
65822;SDS011;52585;47.566;19.056;2023-04-25T08:48:14;2.00;;;1.90;;
65822;SDS011;52585;47.566;19.056;2023-04-25T08:50:51;1.80;;;1.70;;
65822;SDS011;52585;47.566;19.056;2023-04-25T08:53:31;1.80;;;1.70;;
65822;SDS011;52585;47.566;19.056;2023-04-25T08:56:00;1.80;;;1.70;;
65822;SDS011;52585;47.566;19.056;2023-04-25T08:58:30;1.90;;;1.80;;
65822;SDS011;52585;47.566;19.056;2023-04-25T09:00:56;2.20;;;2.10;;
65822;SDS011;52585;47.566;19.056;2023-04-25T09:03:22;2.20;;;2.00;;
65822;SDS011;52585;47.566;19.056;2023-04-25T09:05:49;1.80;;;1.70;;
65822;SDS011;52585;47.566;19.056;2023-04-25T09:08:16;1.90;;;1.80;;
65822;SDS011;52585;47.566;19.056;2023-04-25T09:10:42;2.10;;;1.90;;
65822;SDS011;52585;47.566;19.056;2023-04-25T09:13:10;1.70;;;1.60;;
65822;SDS011;52585;47.566;19.056;2023-04-25T09:16:06;1.80;;;1.70;;
65822;SDS011;52585;47.566;19.056;2023-04-25T09:18:34;2.60;;;1.80;;
65822;SDS011;52585;47.566;19.056;2023-04-25T09:21:08;2.50;;;1.70;;
65822;SDS011;52585;47.566;19.056;2023-04-25T09:23:47;1.60;;;1.50;;
65822;SDS011;52585;47.566;19.056;2023-04-25T09:26:19;1.50;;;1.40;;
65822;SDS011;52585;47.566;19.056;2023-04-25T09:28:46;2.10;;;1.50;;
65822;SDS011;52585;47.566;19.056;2023-04-25T09:31:22;1.90;;;1.60;;
65822;SDS011;52585;47.566;19.056;2023-04-25T09:33:49;3.50;;;1.80;;
65822;SDS011;52585;47.566;19.056;2023-04-25T09:36:15;1.70;;;1.60;;
65822;SDS011;52585;47.566;19.056;2023-04-25T09:38:42;1.40;;;1.40;;
65822;SDS011;52585;47.566;19.056;2023-04-25T09:41:10;1.60;;;1.30;;
65822;SDS011;52585;47.566;19.056;2023-04-25T09:43:37;1.30;;;1.20;;
65822;SDS011;52585;47.566;19.056;2023-04-25T09:46:08;1.30;;;1.20;;
65822;SDS011;52585;47.566;19.056;2023-04-25T09:48:36;1.50;;;1.10;;
65822;SDS011;52585;47.566;19.056;2023-04-25T09:51:14;1.20;;;1.10;;
65822;SDS011;52585;47.566;19.056;2023-04-25T09:53:42;1.30;;;1.20;;
65822;SDS011;52585;47.566;19.056;2023-04-25T09:56:11;1.10;;;1.00;;
65822;SDS011;52585;47.566;19.056;2023-04-25T09:58:41;1.10;;;1.00;;
65822;SDS011;52585;47.566;19.056;2023-04-25T10:01:11;0.80;;;0.80;;
65822;SDS011;52585;47.566;19.056;2023-04-25T10:03:38;1.70;;;0.90;;
65822;SDS011;52585;47.566;19.056;2023-04-25T10:06:07;0.80;;;0.80;;
65822;SDS011;52585;47.566;19.056;2023-04-25T10:08:38;0.80;;;0.80;;
65822;SDS011;52585;47.566;19.056;2023-04-25T10:11:08;0.70;;;0.70;;
65822;SDS011;52585;47.566;19.056;2023-04-25T10:13:35;1.00;;;0.80;;
65822;SDS011;52585;47.566;19.056;2023-04-25T10:16:03;0.60;;;0.60;;
65822;SDS011;52585;47.566;19.056;2023-04-25T10:18:30;0.80;;;0.80;;
65822;SDS011;52585;47.566;19.056;2023-04-25T10:21:02;0.80;;;0.80;;
65822;SDS011;52585;47.566;19.056;2023-04-25T10:23:31;0.80;;;0.70;;
65822;SDS011;52585;47.566;19.056;2023-04-25T10:25:59;0.70;;;0.70;;
65822;SDS011;52585;47.566;19.056;2023-04-25T10:28:26;2.50;;;0.80;;
65822;SDS011;52585;47.566;19.056;2023-04-25T10:31:00;1.20;;;0.70;;
65822;SDS011;52585;47.566;19.056;2023-04-25T10:33:35;0.70;;;0.70;;
65822;SDS011;52585;47.566;19.056;2023-04-25T10:36:18;0.50;;;0.50;;
65822;SDS011;52585;47.566;19.056;2023-04-25T10:38:45;0.50;;;0.50;;
65822;SDS011;52585;47.566;19.056;2023-04-25T10:41:12;0.70;;;0.70;;
65822;SDS011;52585;47.566;19.056;2023-04-25T10:43:43;0.50;;;0.50;;
65822;SDS011;52585;47.566;19.056;2023-04-25T10:46:29;1.00;;;0.50;;
65822;SDS011;52585;47.566;19.056;2023-04-25T10:48:58;0.50;;;0.50;;
65822;SDS011;52585;47.566;19.056;2023-04-25T10:51:26;0.50;;;0.50;;
65822;SDS011;52585;47.566;19.056;2023-04-25T10:54:02;0.50;;;0.50;;
65822;SDS011;52585;47.566;19.056;2023-04-25T10:56:33;0.40;;;0.40;;
65822;SDS011;52585;47.566;19.056;2023-04-25T10:59:17;0.50;;;0.50;;
65822;SDS011;52585;47.566;19.056;2023-04-25T11:01:47;0.40;;;0.40;;
65822;SDS011;52585;47.566;19.056;2023-04-25T11:04:32;0.40;;;0.40;;
65822;SDS011;52585;47.566;19.056;2023-04-25T11:07:31;0.50;;;0.50;;
65822;SDS011;52585;47.566;19.056;2023-04-25T11:10:05;0.40;;;0.40;;
65822;SDS011;52585;47.566;19.056;2023-04-25T11:12:33;0.50;;;0.40;;
65822;SDS011;52585;47.566;19.056;2023-04-25T11:15:06;0.50;;;0.50;;
65822;SDS011;52585;47.566;19.056;2023-04-25T11:17:33;1.80;;;0.50;;
65822;SDS011;52585;47.566;19.056;2023-04-25T11:19:59;4.10;;;0.40;;
65822;SDS011;52585;47.566;19.056;2023-04-25T11:22:27;0.40;;;0.40;;
65822;SDS011;52585;47.566;19.056;2023-04-25T11:24:53;0.30;;;0.30;;
65822;SDS011;52585;47.566;19.056;2023-04-25T11:27:20;0.40;;;0.40;;
65822;SDS011;52585;47.566;19.056;2023-04-25T11:29:46;0.30;;;0.30;;
65822;SDS011;52585;47.566;19.056;2023-04-25T11:32:17;0.30;;;0.30;;
65822;SDS011;52585;47.566;19.056;2023-04-25T11:34:44;0.40;;;0.40;;
65822;SDS011;52585;47.566;19.056;2023-04-25T11:37:12;0.30;;;0.30;;
65822;SDS011;52585;47.566;19.056;2023-04-25T11:39:43;1.40;;;0.40;;
65822;SDS011;52585;47.566;19.056;2023-04-25T11:42:11;2.10;;;0.40;;
65822;SDS011;52585;47.566;19.056;2023-04-25T11:44:38;0.30;;;0.30;;
65822;SDS011;52585;47.566;19.056;2023-04-25T11:47:05;0.40;;;0.40;;
65822;SDS011;52585;47.566;19.056;2023-04-25T11:49:31;2.70;;;0.40;;
65822;SDS011;52585;47.566;19.056;2023-04-25T11:51:57;0.40;;;0.40;;
65822;SDS011;52585;47.566;19.056;2023-04-25T11:54:23;0.30;;;0.30;;
65822;SDS011;52585;47.566;19.056;2023-04-25T11:56:48;0.30;;;0.30;;
65822;SDS011;52585;47.566;19.056;2023-04-25T11:59:14;0.40;;;0.40;;
65822;SDS011;52585;47.566;19.056;2023-04-25T12:01:49;0.50;;;0.40;;
65822;SDS011;52585;47.566;19.056;2023-04-25T12:04:18;0.40;;;0.40;;
65822;SDS011;52585;47.566;19.056;2023-04-25T12:06:47;1.00;;;0.40;;
65822;SDS011;52585;47.566;19.056;2023-04-25T12:09:16;2.50;;;0.40;;
65822;SDS011;52585;47.566;19.056;2023-04-25T12:11:57;0.50;;;0.50;;
65822;SDS011;52585;47.566;19.056;2023-04-25T12:14:31;1.70;;;0.40;;
65822;SDS011;52585;47.566;19.056;2023-04-25T12:17:00;0.70;;;0.40;;
65822;SDS011;52585;47.566;19.056;2023-04-25T12:19:36;0.60;;;0.50;;
65822;SDS011;52585;47.566;19.056;2023-04-25T12:22:19;0.50;;;0.50;;
65822;SDS011;52585;47.566;19.056;2023-04-25T12:24:48;0.50;;;0.50;;
65822;SDS011;52585;47.566;19.056;2023-04-25T12:27:15;1.00;;;0.50;;
65822;SDS011;52585;47.566;19.056;2023-04-25T12:29:54;0.50;;;0.50;;
65822;SDS011;52585;47.566;19.056;2023-04-25T12:32:21;0.40;;;0.40;;
65822;SDS011;52585;47.566;19.056;2023-04-25T12:34:48;0.70;;;0.60;;
65822;SDS011;52585;47.566;19.056;2023-04-25T12:37:13;0.70;;;0.70;;
65822;SDS011;52585;47.566;19.056;2023-04-25T12:39:40;1.60;;;0.50;;
65822;SDS011;52585;47.566;19.056;2023-04-25T12:42:05;0.50;;;0.50;;
65822;SDS011;52585;47.566;19.056;2023-04-25T12:44:33;0.50;;;0.50;;
65822;SDS011;52585;47.566;19.056;2023-04-25T12:47:00;0.70;;;0.50;;
65822;SDS011;52585;47.566;19.056;2023-04-25T12:49:25;0.50;;;0.50;;
65822;SDS011;52585;47.566;19.056;2023-04-25T12:51:51;0.50;;;0.50;;
65822;SDS011;52585;47.566;19.056;2023-04-25T12:54:17;0.50;;;0.50;;
65822;SDS011;52585;47.566;19.056;2023-04-25T12:56:42;0.80;;;0.40;;
65822;SDS011;52585;47.566;19.056;2023-04-25T12:59:08;0.50;;;0.50;;
65822;SDS011;52585;47.566;19.056;2023-04-25T13:01:35;4.80;;;0.80;;
65822;SDS011;52585;47.566;19.056;2023-04-25T13:04:00;0.50;;;0.50;;
65822;SDS011;52585;47.566;19.056;2023-04-25T13:06:26;0.60;;;0.60;;
65822;SDS011;52585;47.566;19.056;2023-04-25T13:08:52;0.60;;;0.60;;
65822;SDS011;52585;47.566;19.056;2023-04-25T13:11:18;1.60;;;0.80;;
65822;SDS011;52585;47.566;19.056;2023-04-25T13:13:44;0.70;;;0.70;;
65822;SDS011;52585;47.566;19.056;2023-04-25T13:16:10;0.60;;;0.60;;
65822;SDS011;52585;47.566;19.056;2023-04-25T13:18:36;0.70;;;0.70;;
65822;SDS011;52585;47.566;19.056;2023-04-25T13:21:03;1.10;;;0.80;;
65822;SDS011;52585;47.566;19.056;2023-04-25T13:23:29;0.70;;;0.70;;
65822;SDS011;52585;47.566;19.056;2023-04-25T13:25:56;3.40;;;0.70;;
65822;SDS011;52585;47.566;19.056;2023-04-25T13:28:25;0.70;;;0.70;;
65822;SDS011;52585;47.566;19.056;2023-04-25T13:30:51;1.90;;;0.70;;
65822;SDS011;52585;47.566;19.056;2023-04-25T13:33:17;0.80;;;0.70;;
65822;SDS011;52585;47.566;19.056;2023-04-25T13:35:44;1.10;;;0.90;;
65822;SDS011;52585;47.566;19.056;2023-04-25T13:38:12;1.50;;;0.80;;
65822;SDS011;52585;47.566;19.056;2023-04-25T13:40:39;0.80;;;0.80;;
65822;SDS011;52585;47.566;19.056;2023-04-25T13:43:05;0.50;;;0.50;;
65822;SDS011;52585;47.566;19.056;2023-04-25T13:45:31;1.20;;;0.80;;
65822;SDS011;52585;47.566;19.056;2023-04-25T13:47:57;0.80;;;0.50;;
65822;SDS011;52585;47.566;19.056;2023-04-25T13:50:23;2.80;;;0.60;;
65822;SDS011;52585;47.566;19.056;2023-04-25T13:52:48;0.70;;;0.70;;
65822;SDS011;52585;47.566;19.056;2023-04-25T13:55:14;0.60;;;0.60;;
65822;SDS011;52585;47.566;19.056;2023-04-25T13:57:40;0.70;;;0.70;;
65822;SDS011;52585;47.566;19.056;2023-04-25T14:00:07;1.40;;;0.60;;
65822;SDS011;52585;47.566;19.056;2023-04-25T14:02:38;1.40;;;0.80;;
65822;SDS011;52585;47.566;19.056;2023-04-25T14:05:04;2.20;;;0.70;;
65822;SDS011;52585;47.566;19.056;2023-04-25T14:07:31;0.80;;;0.70;;
65822;SDS011;52585;47.566;19.056;2023-04-25T14:09:57;0.80;;;0.70;;
65822;SDS011;52585;47.566;19.056;2023-04-25T14:12:23;1.40;;;0.80;;
65822;SDS011;52585;47.566;19.056;2023-04-25T14:14:51;0.80;;;0.70;;
65822;SDS011;52585;47.566;19.056;2023-04-25T14:17:20;1.50;;;0.80;;
65822;SDS011;52585;47.566;19.056;2023-04-25T14:19:46;0.80;;;0.80;;
65822;SDS011;52585;47.566;19.056;2023-04-25T14:22:16;3.00;;;0.90;;
65822;SDS011;52585;47.566;19.056;2023-04-25T14:24:41;0.60;;;0.60;;
65822;SDS011;52585;47.566;19.056;2023-04-25T14:27:07;1.00;;;0.80;;
65822;SDS011;52585;47.566;19.056;2023-04-25T14:29:34;2.60;;;1.00;;
65822;SDS011;52585;47.566;19.056;2023-04-25T14:32:00;2.50;;;1.20;;
65822;SDS011;52585;47.566;19.056;2023-04-25T14:34:25;1.30;;;0.70;;